sensor_id;sensor_type;location;lat;lon;timestamp;pressure;altitude;pressure_sealevel;temperature;humidity
16461;BME280;8341;42.048;24.650;2023-03-18T00:02:04;97715.91;;;6.18;57.99
16461;BME280;8341;42.048;24.650;2023-03-18T00:04:33;97713.94;;;6.19;58.14
16461;BME280;8341;42.048;24.650;2023-03-18T00:07:00;97710.59;;;6.15;57.51
16461;BME280;8341;42.048;24.650;2023-03-18T00:09:26;97703.31;;;6.12;57.51
16461;BME280;8341;42.048;24.650;2023-03-18T00:11:55;97706.56;;;6.07;57.75
16461;BME280;8341;42.048;24.650;2023-03-18T00:14:22;97707.25;;;6.11;58.35
16461;BME280;8341;42.048;24.650;2023-03-18T00:16:49;97702.91;;;6.13;57.69
16461;BME280;8341;42.048;24.650;2023-03-18T00:19:16;97694.97;;;6.19;56.97
16461;BME280;8341;42.048;24.650;2023-03-18T00:21:44;97689.91;;;6.21;56.91
16461;BME280;8341;42.048;24.650;2023-03-18T00:24:11;97695.88;;;6.16;56.63
16461;BME280;8341;42.048;24.650;2023-03-18T00:26:37;97695.66;;;6.10;56.72
16461;BME280;8341;42.048;24.650;2023-03-18T00:29:06;97684.69;;;6.14;58.16
16461;BME280;8341;42.048;24.650;2023-03-18T00:31:33;97685.25;;;6.21;59.20
16461;BME280;8341;42.048;24.650;2023-03-18T00:34:00;97679.16;;;6.05;57.69
16461;BME280;8341;42.048;24.650;2023-03-18T00:36:27;97687.06;;;6.12;59.39
16461;BME280;8341;42.048;24.650;2023-03-18T00:38:55;97662.91;;;6.05;61.08
16461;BME280;8341;42.048;24.650;2023-03-18T00:41:24;97679.28;;;6.14;60.48
16461;BME280;8341;42.048;24.650;2023-03-18T00:43:51;97671.38;;;6.19;61.02
16461;BME280;8341;42.048;24.650;2023-03-18T00:46:22;97667.03;;;6.22;60.45
16461;BME280;8341;42.048;24.650;2023-03-18T00:48:50;97665.53;;;6.21;60.16
16461;BME280;8341;42.048;24.650;2023-03-18T00:51:19;97658.28;;;6.18;61.52
16461;BME280;8341;42.048;24.650;2023-03-18T00:53:49;97661.94;;;6.24;61.49
16461;BME280;8341;42.048;24.650;2023-03-18T00:56:17;97659.69;;;6.22;60.99
16461;BME280;8341;42.048;24.650;2023-03-18T00:58:45;97659.56;;;6.01;61.99
16461;BME280;8341;42.048;24.650;2023-03-18T01:01:12;97663.91;;;6.11;61.39
16461;BME280;8341;42.048;24.650;2023-03-18T01:03:41;97656.13;;;6.13;61.28
16461;BME280;8341;42.048;24.650;2023-03-18T01:06:09;97654.59;;;6.12;62.01
16461;BME280;8341;42.048;24.650;2023-03-18T01:08:37;97660.31;;;6.14;62.69
16461;BME280;8341;42.048;24.650;2023-03-18T01:11:05;97655.25;;;6.16;61.22
16461;BME280;8341;42.048;24.650;2023-03-18T01:13:33;97661.00;;;6.18;61.27
16461;BME280;8341;42.048;24.650;2023-03-18T01:16:00;97666.94;;;6.13;61.42
16461;BME280;8341;42.048;24.650;2023-03-18T01:18:27;97661.09;;;6.14;61.66
16461;BME280;8341;42.048;24.650;2023-03-18T01:20:57;97653.63;;;6.06;61.90
16461;BME280;8341;42.048;24.650;2023-03-18T01:23:23;97658.81;;;6.13;62.36
16461;BME280;8341;42.048;24.650;2023-03-18T01:25:51;97653.25;;;5.62;62.37
16461;BME280;8341;42.048;24.650;2023-03-18T01:28:17;97661.72;;;5.36;64.52
16461;BME280;8341;42.048;24.650;2023-03-18T01:30:45;97652.19;;;5.02;65.98
16461;BME280;8341;42.048;24.650;2023-03-18T01:33:12;97645.50;;;5.07;66.34
16461;BME280;8341;42.048;24.650;2023-03-18T01:35:40;97655.44;;;5.26;65.03
16461;BME280;8341;42.048;24.650;2023-03-18T01:38:08;97650.47;;;5.37;64.78
16461;BME280;8341;42.048;24.650;2023-03-18T01:40:36;97647.09;;;5.49;65.51
16461;BME280;8341;42.048;24.650;2023-03-18T01:43:12;97646.56;;;5.54;67.26
16461;BME280;8341;42.048;24.650;2023-03-18T01:45:43;97648.28;;;5.61;68.28
16461;BME280;8341;42.048;24.650;2023-03-18T01:48:13;97647.72;;;5.53;66.72
16461;BME280;8341;42.048;24.650;2023-03-18T01:50:42;97642.66;;;5.55;65.73
16461;BME280;8341;42.048;24.650;2023-03-18T01:53:13;97637.75;;;5.50;65.85
16461;BME280;8341;42.048;24.650;2023-03-18T01:55:41;97646.13;;;5.56;66.19
16461;BME280;8341;42.048;24.650;2023-03-18T01:58:12;97633.69;;;5.58;66.65
16461;BME280;8341;42.048;24.650;2023-03-18T02:00:44;97642.31;;;5.53;66.49
16461;BME280;8341;42.048;24.650;2023-03-18T02:03:14;97637.16;;;5.59;66.49
16461;BME280;8341;42.048;24.650;2023-03-18T02:05:41;97631.25;;;5.48;66.05
16461;BME280;8341;42.048;24.650;2023-03-18T02:08:08;97642.38;;;5.37;65.68
16461;BME280;8341;42.048;24.650;2023-03-18T02:10:37;97632.59;;;5.27;66.64
16461;BME280;8341;42.048;24.650;2023-03-18T02:13:06;97632.47;;;5.47;66.93
16461;BME280;8341;42.048;24.650;2023-03-18T02:15:34;97627.94;;;5.56;68.28
16461;BME280;8341;42.048;24.650;2023-03-18T02:18:05;97625.13;;;5.60;68.87
16461;BME280;8341;42.048;24.650;2023-03-18T02:20:49;97628.91;;;5.62;68.99
16461;BME280;8341;42.048;24.650;2023-03-18T02:23:25;97633.69;;;5.58;69.06
16461;BME280;8341;42.048;24.650;2023-03-18T02:26:04;97634.31;;;5.62;69.45
16461;BME280;8341;42.048;24.650;2023-03-18T02:28:36;97639.75;;;5.62;69.24
16461;BME280;8341;42.048;24.650;2023-03-18T02:31:09;97635.94;;;5.60;69.49
16461;BME280;8341;42.048;24.650;2023-03-18T02:33:39;97638.44;;;5.54;68.80
16461;BME280;8341;42.048;24.650;2023-03-18T02:36:10;97632.13;;;5.45;67.98
16461;BME280;8341;42.048;24.650;2023-03-18T02:38:40;97627.75;;;5.35;68.61
16461;BME280;8341;42.048;24.650;2023-03-18T02:41:12;97628.69;;;5.44;68.33
16461;BME280;8341;42.048;24.650;2023-03-18T02:43:40;97623.44;;;5.37;70.37
16461;BME280;8341;42.048;24.650;2023-03-18T02:46:17;97627.78;;;5.47;70.55
16461;BME280;8341;42.048;24.650;2023-03-18T02:48:47;97633.88;;;5.51;70.15
16461;BME280;8341;42.048;24.650;2023-03-18T02:51:15;97638.09;;;5.52;70.59
16461;BME280;8341;42.048;24.650;2023-03-18T02:53:43;97634.97;;;5.54;70.01
16461;BME280;8341;42.048;24.650;2023-03-18T02:56:10;97643.41;;;5.56;70.71
16461;BME280;8341;42.048;24.650;2023-03-18T02:58:37;97639.09;;;5.58;70.38
16461;BME280;8341;42.048;24.650;2023-03-18T03:01:06;97636.09;;;5.40;71.54
16461;BME280;8341;42.048;24.650;2023-03-18T03:03:34;97641.84;;;5.14;71.50
16461;BME280;8341;42.048;24.650;2023-03-18T03:06:01;97629.59;;;5.09;72.59
16461;BME280;8341;42.048;24.650;2023-03-18T03:08:28;97642.06;;;4.90;71.50
16461;BME280;8341;42.048;24.650;2023-03-18T03:10:55;97637.13;;;5.01;70.49
16461;BME280;8341;42.048;24.650;2023-03-18T03:13:23;97639.38;;;5.19;70.50
16461;BME280;8341;42.048;24.650;2023-03-18T03:15:50;97646.13;;;5.27;70.08
16461;BME280;8341;42.048;24.650;2023-03-18T03:18:19;97641.41;;;5.15;69.64
16461;BME280;8341;42.048;24.650;2023-03-18T03:20:47;97641.78;;;5.01;69.65
16461;BME280;8341;42.048;24.650;2023-03-18T03:23:14;97640.28;;;5.00;69.46
16461;BME280;8341;42.048;24.650;2023-03-18T03:25:42;97641.13;;;4.97;69.49
16461;BME280;8341;42.048;24.650;2023-03-18T03:28:10;97639.44;;;5.03;69.55
16461;BME280;8341;42.048;24.650;2023-03-18T03:30:38;97639.75;;;5.05;69.94
16461;BME280;8341;42.048;24.650;2023-03-18T03:33:05;97642.59;;;5.14;69.73
16461;BME280;8341;42.048;24.650;2023-03-18T03:35:34;97641.75;;;5.17;69.63
16461;BME280;8341;42.048;24.650;2023-03-18T03:38:01;97643.16;;;5.22;69.56
16461;BME280;8341;42.048;24.650;2023-03-18T03:40:27;97648.06;;;5.27;69.80
16461;BME280;8341;42.048;24.650;2023-03-18T03:42:54;97646.88;;;5.28;69.96
16461;BME280;8341;42.048;24.650;2023-03-18T03:45:21;97652.84;;;5.35;69.95
16461;BME280;8341;42.048;24.650;2023-03-18T03:47:49;97650.16;;;5.35;69.78
16461;BME280;8341;42.048;24.650;2023-03-18T03:50:17;97653.63;;;5.36;70.14
16461;BME280;8341;42.048;24.650;2023-03-18T03:52:45;97649.25;;;5.26;71.16
16461;BME280;8341;42.048;24.650;2023-03-18T03:55:16;97654.41;;;5.20;72.08
16461;BME280;8341;42.048;24.650;2023-03-18T03:57:43;97654.56;;;5.29;71.49
16461;BME280;8341;42.048;24.650;2023-03-18T04:00:13;97663.25;;;5.37;71.07
16461;BME280;8341;42.048;24.650;2023-03-18T04:02:41;97659.03;;;5.36;71.88
16461;BME280;8341;42.048;24.650;2023-03-18T04:05:10;97665.94;;;5.37;71.25
16461;BME280;8341;42.048;24.650;2023-03-18T04:07:37;97668.25;;;5.38;70.72
16461;BME280;8341;42.048;24.650;2023-03-18T04:10:08;97664.84;;;5.34;70.55
16461;BME280;8341;42.048;24.650;2023-03-18T04:12:35;97666.69;;;5.37;70.85
16461;BME280;8341;42.048;24.650;2023-03-18T04:15:03;97664.31;;;5.39;70.51
16461;BME280;8341;42.048;24.650;2023-03-18T04:17:30;97669.31;;;5.41;70.51
16461;BME280;8341;42.048;24.650;2023-03-18T04:19:57;97675.06;;;5.43;69.75
16461;BME280;8341;42.048;24.650;2023-03-18T04:22:24;97681.22;;;5.43;69.61
16461;BME280;8341;42.048;24.650;2023-03-18T04:24:50;97669.00;;;5.39;69.99
16461;BME280;8341;42.048;24.650;2023-03-18T04:27:18;97678.84;;;5.45;69.93
16461;BME280;8341;42.048;24.650;2023-03-18T04:29:47;97681.16;;;5.47;69.72
16461;BME280;8341;42.048;24.650;2023-03-18T04:32:13;97678.09;;;5.45;69.72
16461;BME280;8341;42.048;24.650;2023-03-18T04:34:40;97677.34;;;5.44;69.66
16461;BME280;8341;42.048;24.650;2023-03-18T04:37:07;97681.56;;;5.45;70.37
16461;BME280;8341;42.048;24.650;2023-03-18T04:39:34;97676.47;;;5.47;69.90
16461;BME280;8341;42.048;24.650;2023-03-18T04:42:01;97676.16;;;5.45;69.90
16461;BME280;8341;42.048;24.650;2023-03-18T04:44:30;97683.75;;;5.50;69.54
16461;BME280;8341;42.048;24.650;2023-03-18T04:46:57;97681.03;;;5.50;69.90
16461;BME280;8341;42.048;24.650;2023-03-18T04:49:24;97678.34;;;5.50;69.41
16461;BME280;8341;42.048;24.650;2023-03-18T04:51:50;97673.25;;;5.52;69.14
16461;BME280;8341;42.048;24.650;2023-03-18T04:54:17;97680.50;;;5.55;69.35
16461;BME280;8341;42.048;24.650;2023-03-18T04:56:44;97677.81;;;5.55;69.18
16461;BME280;8341;42.048;24.650;2023-03-18T04:59:11;97676.09;;;5.61;68.75
16461;BME280;8341;42.048;24.650;2023-03-18T05:01:39;97676.75;;;5.65;68.78
16461;BME280;8341;42.048;24.650;2023-03-18T05:04:06;97674.50;;;5.64;68.54
16461;BME280;8341;42.048;24.650;2023-03-18T05:06:33;97677.44;;;5.69;68.49
16461;BME280;8341;42.048;24.650;2023-03-18T05:09:02;97681.03;;;5.79;68.02
16461;BME280;8341;42.048;24.650;2023-03-18T05:11:30;97679.22;;;5.89;68.48
16461;BME280;8341;42.048;24.650;2023-03-18T05:13:57;97675.75;;;5.88;67.49
16461;BME280;8341;42.048;24.650;2023-03-18T05:16:24;97674.50;;;5.93;67.21
16461;BME280;8341;42.048;24.650;2023-03-18T05:18:52;97679.47;;;5.94;67.95
16461;BME280;8341;42.048;24.650;2023-03-18T05:21:19;97677.31;;;6.02;67.59
16461;BME280;8341;42.048;24.650;2023-03-18T05:23:45;97682.97;;;6.07;67.38
16461;BME280;8341;42.048;24.650;2023-03-18T05:26:12;97675.47;;;6.11;67.65
16461;BME280;8341;42.048;24.650;2023-03-18T05:28:39;97680.81;;;6.15;67.44
16461;BME280;8341;42.048;24.650;2023-03-18T05:31:06;97680.56;;;6.09;66.46
16461;BME280;8341;42.048;24.650;2023-03-18T05:33:33;97675.59;;;6.08;66.43
16461;BME280;8341;42.048;24.650;2023-03-18T05:36:01;97687.06;;;6.12;66.05
16461;BME280;8341;42.048;24.650;2023-03-18T05:38:28;97684.50;;;6.21;65.24
16461;BME280;8341;42.048;24.650;2023-03-18T05:40:55;97688.16;;;6.27;65.25
16461;BME280;8341;42.048;24.650;2023-03-18T05:43:22;97693.81;;;6.32;64.21
16461;BME280;8341;42.048;24.650;2023-03-18T05:45:49;97701.53;;;6.34;63.81
16461;BME280;8341;42.048;24.650;2023-03-18T05:48:16;97702.38;;;6.44;64.66
16461;BME280;8341;42.048;24.650;2023-03-18T05:50:43;97699.16;;;6.49;64.33
16461;BME280;8341;42.048;24.650;2023-03-18T05:53:12;97703.56;;;6.55;64.24
16461;BME280;8341;42.048;24.650;2023-03-18T05:55:41;97707.16;;;6.65;64.80
16461;BME280;8341;42.048;24.650;2023-03-18T05:58:08;97693.81;;;6.70;64.82
16461;BME280;8341;42.048;24.650;2023-03-18T06:00:35;97704.78;;;6.79;64.75
16461;BME280;8341;42.048;24.650;2023-03-18T06:03:03;97699.13;;;6.86;64.85
16461;BME280;8341;42.048;24.650;2023-03-18T06:05:30;97701.59;;;6.93;64.66
16461;BME280;8341;42.048;24.650;2023-03-18T06:07:57;97704.66;;;6.96;65.23
16461;BME280;8341;42.048;24.650;2023-03-18T06:10:26;97709.97;;;6.86;63.53
16461;BME280;8341;42.048;24.650;2023-03-18T06:12:53;97697.25;;;6.96;61.52
16461;BME280;8341;42.048;24.650;2023-03-18T06:15:21;97697.34;;;7.05;61.33
16461;BME280;8341;42.048;24.650;2023-03-18T06:17:48;97697.88;;;7.13;61.31
16461;BME280;8341;42.048;24.650;2023-03-18T06:20:16;97694.94;;;7.20;61.17
16461;BME280;8341;42.048;24.650;2023-03-18T06:22:43;97697.75;;;7.29;59.91
16461;BME280;8341;42.048;24.650;2023-03-18T06:25:15;97689.81;;;7.34;60.00
16461;BME280;8341;42.048;24.650;2023-03-18T06:27:44;97704.59;;;7.21;57.74
16461;BME280;8341;42.048;24.650;2023-03-18T06:30:13;97698.72;;;7.22;59.21
16461;BME280;8341;42.048;24.650;2023-03-18T06:32:40;97693.88;;;7.05;60.67
16461;BME280;8341;42.048;24.650;2023-03-18T06:35:09;97689.88;;;6.97;59.88
16461;BME280;8341;42.048;24.650;2023-03-18T06:37:37;97693.09;;;7.17;60.55
16461;BME280;8341;42.048;24.650;2023-03-18T06:40:05;97687.44;;;7.24;60.94
16461;BME280;8341;42.048;24.650;2023-03-18T06:42:32;97696.22;;;7.28;58.92
16461;BME280;8341;42.048;24.650;2023-03-18T06:45:01;97673.19;;;7.32;59.52
16461;BME280;8341;42.048;24.650;2023-03-18T06:47:28;97687.97;;;7.53;58.53
16461;BME280;8341;42.048;24.650;2023-03-18T06:49:55;97696.06;;;7.44;57.73
16461;BME280;8341;42.048;24.650;2023-03-18T06:52:22;97694.78;;;7.36;57.99
16461;BME280;8341;42.048;24.650;2023-03-18T06:54:49;97684.69;;;7.36;57.72
16461;BME280;8341;42.048;24.650;2023-03-18T06:57:16;97687.22;;;7.31;57.09
16461;BME280;8341;42.048;24.650;2023-03-18T06:59:44;97689.97;;;7.40;55.61
16461;BME280;8341;42.048;24.650;2023-03-18T07:02:14;97688.34;;;7.42;56.46
16461;BME280;8341;42.048;24.650;2023-03-18T07:04:41;97694.44;;;7.46;56.02
16461;BME280;8341;42.048;24.650;2023-03-18T07:07:08;97685.84;;;7.48;56.03
16461;BME280;8341;42.048;24.650;2023-03-18T07:09:35;97695.91;;;7.47;55.74
16461;BME280;8341;42.048;24.650;2023-03-18T07:12:02;97690.44;;;7.60;56.03
16461;BME280;8341;42.048;24.650;2023-03-18T07:14:30;97685.28;;;7.19;55.70
16461;BME280;8341;42.048;24.650;2023-03-18T07:16:57;97694.47;;;7.34;56.84
16461;BME280;8341;42.048;24.650;2023-03-18T07:19:26;97695.28;;;7.43;57.26
16461;BME280;8341;42.048;24.650;2023-03-18T07:21:53;97687.09;;;7.56;57.63
16461;BME280;8341;42.048;24.650;2023-03-18T07:24:20;97682.06;;;7.67;55.41
16461;BME280;8341;42.048;24.650;2023-03-18T07:26:47;97689.66;;;7.72;54.99
16461;BME280;8341;42.048;24.650;2023-03-18T07:29:15;97666.34;;;7.62;55.03
16461;BME280;8341;42.048;24.650;2023-03-18T07:31:42;97687.56;;;7.76;56.12
16461;BME280;8341;42.048;24.650;2023-03-18T07:34:09;97681.31;;;7.88;57.23
16461;BME280;8341;42.048;24.650;2023-03-18T07:36:37;97683.25;;;8.09;56.95
16461;BME280;8341;42.048;24.650;2023-03-18T07:39:04;97683.78;;;8.26;56.16
16461;BME280;8341;42.048;24.650;2023-03-18T07:41:32;97676.47;;;8.36;56.45
16461;BME280;8341;42.048;24.650;2023-03-18T07:43:58;97668.22;;;8.48;58.82
16461;BME280;8341;42.048;24.650;2023-03-18T07:46:25;97683.25;;;8.71;56.27
16461;BME280;8341;42.048;24.650;2023-03-18T07:48:52;97679.59;;;8.65;52.42
16461;BME280;8341;42.048;24.650;2023-03-18T07:51:19;97686.44;;;8.78;51.89
16461;BME280;8341;42.048;24.650;2023-03-18T07:53:48;97680.88;;;8.91;53.12
16461;BME280;8341;42.048;24.650;2023-03-18T07:56:16;97673.88;;;8.72;54.63
16461;BME280;8341;42.048;24.650;2023-03-18T07:58:43;97672.94;;;8.66;54.20
16461;BME280;8341;42.048;24.650;2023-03-18T08:01:09;97671.03;;;8.36;54.67
16461;BME280;8341;42.048;24.650;2023-03-18T08:03:36;97682.66;;;8.76;54.28
16461;BME280;8341;42.048;24.650;2023-03-18T08:06:03;97676.19;;;8.92;52.01
16461;BME280;8341;42.048;24.650;2023-03-18T08:08:30;97677.13;;;8.98;51.01
16461;BME280;8341;42.048;24.650;2023-03-18T08:10:58;97677.47;;;9.18;50.88
16461;BME280;8341;42.048;24.650;2023-03-18T08:13:27;97666.44;;;9.30;51.15
16461;BME280;8341;42.048;24.650;2023-03-18T08:15:53;97682.47;;;9.37;51.06
16461;BME280;8341;42.048;24.650;2023-03-18T08:18:21;97684.28;;;9.50;50.18
16461;BME280;8341;42.048;24.650;2023-03-18T08:20:48;97681.25;;;9.48;50.07
16461;BME280;8341;42.048;24.650;2023-03-18T08:23:15;97689.69;;;9.22;50.62
16461;BME280;8341;42.048;24.650;2023-03-18T08:25:42;97685.72;;;8.87;51.78
16461;BME280;8341;42.048;24.650;2023-03-18T08:28:10;97696.81;;;9.11;52.75
16461;BME280;8341;42.048;24.650;2023-03-18T08:30:38;97690.13;;;9.12;52.42
16461;BME280;8341;42.048;24.650;2023-03-18T08:33:05;97687.47;;;8.72;53.60
16461;BME280;8341;42.048;24.650;2023-03-18T08:35:33;97693.19;;;8.65;54.06
16461;BME280;8341;42.048;24.650;2023-03-18T08:38:00;97705.19;;;8.46;55.93
16461;BME280;8341;42.048;24.650;2023-03-18T08:40:28;97704.38;;;8.14;56.06
16461;BME280;8341;42.048;24.650;2023-03-18T08:42:55;97705.28;;;7.68;58.24
16461;BME280;8341;42.048;24.650;2023-03-18T08:45:24;97706.09;;;7.56;59.07
16461;BME280;8341;42.048;24.650;2023-03-18T08:47:51;97708.31;;;7.48;60.31
16461;BME280;8341;42.048;24.650;2023-03-18T08:50:19;97718.47;;;7.23;62.23
16461;BME280;8341;42.048;24.650;2023-03-18T08:52:47;97714.81;;;7.04;63.58
16461;BME280;8341;42.048;24.650;2023-03-18T08:55:13;97718.22;;;6.96;64.29
16461;BME280;8341;42.048;24.650;2023-03-18T08:57:40;97721.78;;;6.92;64.64
16461;BME280;8341;42.048;24.650;2023-03-18T09:00:09;97722.19;;;6.91;65.62
16461;BME280;8341;42.048;24.650;2023-03-18T09:02:37;97726.75;;;6.94;65.86
16461;BME280;8341;42.048;24.650;2023-03-18T09:05:05;97727.59;;;7.04;65.29
16461;BME280;8341;42.048;24.650;2023-03-18T09:07:32;97718.31;;;7.39;67.34
16461;BME280;8341;42.048;24.650;2023-03-18T09:09:58;97726.63;;;7.57;64.16
16461;BME280;8341;42.048;24.650;2023-03-18T09:12:25;97727.91;;;7.87;64.23
16461;BME280;8341;42.048;24.650;2023-03-18T09:14:53;97729.41;;;8.09;61.57
16461;BME280;8341;42.048;24.650;2023-03-18T09:17:20;97737.25;;;8.07;61.08
16461;BME280;8341;42.048;24.650;2023-03-18T09:19:49;97737.38;;;8.26;60.29
16461;BME280;8341;42.048;24.650;2023-03-18T09:22:15;97737.00;;;8.14;58.74
16461;BME280;8341;42.048;24.650;2023-03-18T09:24:42;97741.50;;;8.08;59.33
16461;BME280;8341;42.048;24.650;2023-03-18T09:27:09;97731.56;;;8.14;60.72
16461;BME280;8341;42.048;24.650;2023-03-18T09:29:37;97737.25;;;8.07;57.92
16461;BME280;8341;42.048;24.650;2023-03-18T09:32:04;97726.56;;;8.13;60.53
16461;BME280;8341;42.048;24.650;2023-03-18T09:34:31;97746.28;;;8.26;59.81
16461;BME280;8341;42.048;24.650;2023-03-18T09:36:59;97748.81;;;8.20;58.79
16461;BME280;8341;42.048;24.650;2023-03-18T09:39:26;97749.78;;;8.27;61.66
16461;BME280;8341;42.048;24.650;2023-03-18T09:42:03;97743.84;;;7.63;59.51
16461;BME280;8341;42.048;24.650;2023-03-18T09:44:33;97744.31;;;7.62;59.93
16461;BME280;8341;42.048;24.650;2023-03-18T09:47:24;97748.19;;;7.95;62.38
16461;BME280;8341;42.048;24.650;2023-03-18T09:50:05;97750.53;;;8.05;64.53
16461;BME280;8341;42.048;24.650;2023-03-18T09:52:38;97741.94;;;7.85;58.91
16461;BME280;8341;42.048;24.650;2023-03-18T09:55:11;97746.59;;;8.06;62.98
16461;BME280;8341;42.048;24.650;2023-03-18T09:57:45;97740.41;;;8.28;62.50
16461;BME280;8341;42.048;24.650;2023-03-18T10:00:18;97741.16;;;8.50;60.33
16461;BME280;8341;42.048;24.650;2023-03-18T10:02:49;97744.88;;;8.74;61.58
16461;BME280;8341;42.048;24.650;2023-03-18T10:05:22;97761.16;;;8.34;56.24
16461;BME280;8341;42.048;24.650;2023-03-18T10:07:54;97760.00;;;8.23;55.77
16461;BME280;8341;42.048;24.650;2023-03-18T10:10:26;97763.22;;;8.52;54.44
16461;BME280;8341;42.048;24.650;2023-03-18T10:13:01;97763.56;;;8.63;55.39
16461;BME280;8341;42.048;24.650;2023-03-18T10:15:31;97765.56;;;8.71;54.81
16461;BME280;8341;42.048;24.650;2023-03-18T10:18:01;97762.16;;;8.28;55.17
16461;BME280;8341;42.048;24.650;2023-03-18T10:20:35;97761.00;;;8.38;56.37
16461;BME280;8341;42.048;24.650;2023-03-18T10:23:10;97766.16;;;8.66;57.63
16461;BME280;8341;42.048;24.650;2023-03-18T10:25:45;97755.88;;;9.01;56.26
16461;BME280;8341;42.048;24.650;2023-03-18T10:28:35;97766.22;;;9.24;55.12
16461;BME280;8341;42.048;24.650;2023-03-18T10:31:21;97758.91;;;9.12;52.07
16461;BME280;8341;42.048;24.650;2023-03-18T10:33:57;97770.09;;;9.05;55.16
16461;BME280;8341;42.048;24.650;2023-03-18T10:36:31;97769.56;;;9.28;52.13
16461;BME280;8341;42.048;24.650;2023-03-18T10:39:02;97771.31;;;9.13;49.90
16461;BME280;8341;42.048;24.650;2023-03-18T10:41:31;97772.56;;;9.21;51.60
16461;BME280;8341;42.048;24.650;2023-03-18T10:44:01;97781.50;;;9.31;49.59
16461;BME280;8341;42.048;24.650;2023-03-18T10:46:29;97778.53;;;9.47;51.90
16461;BME280;8341;42.048;24.650;2023-03-18T10:49:00;97773.25;;;9.80;52.69
16461;BME280;8341;42.048;24.650;2023-03-18T10:51:34;97770.69;;;9.85;47.86
16461;BME280;8341;42.048;24.650;2023-03-18T10:54:09;97762.19;;;9.92;47.67
16461;BME280;8341;42.048;24.650;2023-03-18T10:56:38;97766.81;;;9.28;47.73
16461;BME280;8341;42.048;24.650;2023-03-18T10:59:10;97777.78;;;9.74;51.10
16461;BME280;8341;42.048;24.650;2023-03-18T11:01:40;97769.63;;;9.83;48.08
16461;BME280;8341;42.048;24.650;2023-03-18T11:04:11;97765.25;;;10.13;47.67
16461;BME280;8341;42.048;24.650;2023-03-18T11:06:43;97759.63;;;10.34;49.31
16461;BME280;8341;42.048;24.650;2023-03-18T11:09:16;97759.59;;;10.43;46.70
16461;BME280;8341;42.048;24.650;2023-03-18T11:11:43;97771.75;;;10.24;46.66
16461;BME280;8341;42.048;24.650;2023-03-18T11:14:13;97761.44;;;9.92;46.34
16461;BME280;8341;42.048;24.650;2023-03-18T11:16:45;97765.06;;;10.07;48.05
16461;BME280;8341;42.048;24.650;2023-03-18T11:19:29;97771.13;;;9.75;47.09
16461;BME280;8341;42.048;24.650;2023-03-18T11:22:02;97754.78;;;9.93;49.83
16461;BME280;8341;42.048;24.650;2023-03-18T11:24:32;97760.06;;;9.96;47.41
16461;BME280;8341;42.048;24.650;2023-03-18T11:27:23;97764.47;;;10.30;48.14
16461;BME280;8341;42.048;24.650;2023-03-18T11:29:54;97755.81;;;10.41;46.50
16461;BME280;8341;42.048;24.650;2023-03-18T11:32:23;97748.34;;;10.50;47.19
16461;BME280;8341;42.048;24.650;2023-03-18T11:34:54;97761.31;;;10.14;44.00
16461;BME280;8341;42.048;24.650;2023-03-18T11:37:26;97763.72;;;10.02;45.31
16461;BME280;8341;42.048;24.650;2023-03-18T11:40:05;97750.25;;;10.26;46.36
16461;BME280;8341;42.048;24.650;2023-03-18T11:42:33;97753.88;;;9.69;45.30
16461;BME280;8341;42.048;24.650;2023-03-18T11:45:00;97754.34;;;9.85;47.11
16461;BME280;8341;42.048;24.650;2023-03-18T11:47:31;97752.22;;;9.80;45.55
16461;BME280;8341;42.048;24.650;2023-03-18T11:50:02;97752.69;;;9.88;46.23
16461;BME280;8341;42.048;24.650;2023-03-18T11:52:36;97751.28;;;10.11;45.88
16461;BME280;8341;42.048;24.650;2023-03-18T11:55:15;97752.34;;;10.04;45.50
16461;BME280;8341;42.048;24.650;2023-03-18T11:58:06;97748.88;;;10.03;45.37
16461;BME280;8341;42.048;24.650;2023-03-18T12:00:47;97744.78;;;9.54;46.00
16461;BME280;8341;42.048;24.650;2023-03-18T12:03:47;97751.72;;;9.36;47.04
16461;BME280;8341;42.048;24.650;2023-03-18T12:06:20;97732.06;;;9.51;49.31
16461;BME280;8341;42.048;24.650;2023-03-18T12:08:58;97736.66;;;9.81;48.64
16461;BME280;8341;42.048;24.650;2023-03-18T12:11:55;97736.16;;;10.09;46.99
16461;BME280;8341;42.048;24.650;2023-03-18T12:14:31;97738.00;;;10.03;46.35
16461;BME280;8341;42.048;24.650;2023-03-18T12:17:12;97739.03;;;10.15;47.44
16461;BME280;8341;42.048;24.650;2023-03-18T12:22:56;97739.81;;;10.76;48.02
16461;BME280;8341;42.048;24.650;2023-03-18T12:25:43;97739.75;;;11.17;45.97
16461;BME280;8341;42.048;24.650;2023-03-18T12:28:26;97732.84;;;11.31;48.23
16461;BME280;8341;42.048;24.650;2023-03-18T12:31:05;97730.28;;;11.51;45.53
16461;BME280;8341;42.048;24.650;2023-03-18T12:33:53;97732.53;;;11.76;45.41
16461;BME280;8341;42.048;24.650;2023-03-18T12:36:38;97718.50;;;11.45;44.30
16461;BME280;8341;42.048;24.650;2023-03-18T12:39:28;97731.91;;;11.34;43.86
16461;BME280;8341;42.048;24.650;2023-03-18T12:42:02;97724.72;;;11.22;45.61
16461;BME280;8341;42.048;24.650;2023-03-18T12:44:53;97723.88;;;11.07;45.40
16461;BME280;8341;42.048;24.650;2023-03-18T12:47:25;97734.72;;;10.92;43.86
16461;BME280;8341;42.048;24.650;2023-03-18T12:49:56;97704.84;;;10.14;43.35
16461;BME280;8341;42.048;24.650;2023-03-18T12:52:28;97728.75;;;10.01;44.25
16461;BME280;8341;42.048;24.650;2023-03-18T12:55:01;97737.81;;;9.43;45.36
16461;BME280;8341;42.048;24.650;2023-03-18T12:57:35;97734.25;;;9.07;46.71
16461;BME280;8341;42.048;24.650;2023-03-18T13:00:15;97733.06;;;8.99;47.11
16461;BME280;8341;42.048;24.650;2023-03-18T13:02:48;97723.72;;;9.18;46.21
16461;BME280;8341;42.048;24.650;2023-03-18T13:05:23;97723.16;;;9.41;45.95
16461;BME280;8341;42.048;24.650;2023-03-18T13:08:25;97724.81;;;9.57;47.77
16461;BME280;8341;42.048;24.650;2023-03-18T13:10:58;97687.31;;;9.61;48.86
16461;BME280;8341;42.048;24.650;2023-03-18T13:13:31;97712.25;;;9.86;48.16
16461;BME280;8341;42.048;24.650;2023-03-18T13:16:03;97699.22;;;10.08;49.40
16461;BME280;8341;42.048;24.650;2023-03-18T13:18:37;97678.19;;;10.00;47.79
16461;BME280;8341;42.048;24.650;2023-03-18T13:21:08;97681.38;;;10.17;47.59
16461;BME280;8341;42.048;24.650;2023-03-18T13:24:10;97707.34;;;10.36;46.69
16461;BME280;8341;42.048;24.650;2023-03-18T13:26:54;97699.28;;;10.50;46.51
16461;BME280;8341;42.048;24.650;2023-03-18T13:29:32;97698.63;;;10.64;43.25